sensor_id;sensor_type;location;lat;lon;timestamp;temperature;humidity
64685;DHT22;51109;47.414;18.954;2022-08-07T00:01:12;20.20;99.90
64685;DHT22;51109;47.414;18.954;2022-08-07T00:03:38;20.30;99.90
64685;DHT22;51109;47.414;18.954;2022-08-07T00:06:04;20.30;99.90
64685;DHT22;51109;47.414;18.954;2022-08-07T00:08:31;20.40;99.90
64685;DHT22;51109;47.414;18.954;2022-08-07T00:10:57;20.50;99.90
64685;DHT22;51109;47.414;18.954;2022-08-07T00:13:23;20.50;99.90
64685;DHT22;51109;47.414;18.954;2022-08-07T00:15:50;20.50;99.90
64685;DHT22;51109;47.414;18.954;2022-08-07T00:18:18;20.50;99.90
64685;DHT22;51109;47.414;18.954;2022-08-07T00:20:45;20.40;99.90
64685;DHT22;51109;47.414;18.954;2022-08-07T00:23:11;20.40;99.90
64685;DHT22;51109;47.414;18.954;2022-08-07T00:25:37;20.40;99.90
64685;DHT22;51109;47.414;18.954;2022-08-07T00:28:03;20.50;99.90
64685;DHT22;51109;47.414;18.954;2022-08-07T00:30:28;20.40;99.90
64685;DHT22;51109;47.414;18.954;2022-08-07T00:32:56;20.50;99.90
64685;DHT22;51109;47.414;18.954;2022-08-07T00:35:22;20.40;99.90
64685;DHT22;51109;47.414;18.954;2022-08-07T00:37:48;20.30;99.90
64685;DHT22;51109;47.414;18.954;2022-08-07T00:40:15;20.40;99.90
64685;DHT22;51109;47.414;18.954;2022-08-07T00:42:41;20.40;99.90
64685;DHT22;51109;47.414;18.954;2022-08-07T00:45:08;20.40;99.90
64685;DHT22;51109;47.414;18.954;2022-08-07T00:47:35;20.30;99.90
64685;DHT22;51109;47.414;18.954;2022-08-07T00:50:01;20.30;99.90
64685;DHT22;51109;47.414;18.954;2022-08-07T00:52:27;20.30;99.90
64685;DHT22;51109;47.414;18.954;2022-08-07T00:54:53;20.40;99.90
64685;DHT22;51109;47.414;18.954;2022-08-07T00:57:20;20.50;99.90
64685;DHT22;51109;47.414;18.954;2022-08-07T00:59:46;20.50;99.90
64685;DHT22;51109;47.414;18.954;2022-08-07T01:02:13;20.40;99.90
64685;DHT22;51109;47.414;18.954;2022-08-07T01:04:39;20.30;99.90
64685;DHT22;51109;47.414;18.954;2022-08-07T01:07:05;20.40;99.90
64685;DHT22;51109;47.414;18.954;2022-08-07T01:09:32;20.20;99.90
64685;DHT22;51109;47.414;18.954;2022-08-07T01:11:58;20.20;99.90
64685;DHT22;51109;47.414;18.954;2022-08-07T01:14:25;20.20;99.90
64685;DHT22;51109;47.414;18.954;2022-08-07T01:16:52;20.20;99.90
64685;DHT22;51109;47.414;18.954;2022-08-07T01:19:20;20.20;99.90
64685;DHT22;51109;47.414;18.954;2022-08-07T01:21:48;20.20;99.90
64685;DHT22;51109;47.414;18.954;2022-08-07T01:24:16;20.20;99.90
64685;DHT22;51109;47.414;18.954;2022-08-07T01:26:42;20.10;99.90
64685;DHT22;51109;47.414;18.954;2022-08-07T01:29:09;20.10;99.90
64685;DHT22;51109;47.414;18.954;2022-08-07T01:31:36;20.00;99.90
64685;DHT22;51109;47.414;18.954;2022-08-07T01:34:02;20.00;99.90
64685;DHT22;51109;47.414;18.954;2022-08-07T01:36:31;20.00;99.90
64685;DHT22;51109;47.414;18.954;2022-08-07T01:38:57;20.20;99.90
64685;DHT22;51109;47.414;18.954;2022-08-07T01:41:27;20.30;99.90
64685;DHT22;51109;47.414;18.954;2022-08-07T01:43:53;20.40;99.90
64685;DHT22;51109;47.414;18.954;2022-08-07T01:46:20;20.40;99.90
64685;DHT22;51109;47.414;18.954;2022-08-07T01:48:47;20.40;99.90
64685;DHT22;51109;47.414;18.954;2022-08-07T01:51:19;20.40;99.90
64685;DHT22;51109;47.414;18.954;2022-08-07T01:53:50;20.50;99.90
64685;DHT22;51109;47.414;18.954;2022-08-07T01:56:23;20.50;99.90
64685;DHT22;51109;47.414;18.954;2022-08-07T01:58:52;20.50;99.90
64685;DHT22;51109;47.414;18.954;2022-08-07T02:01:30;20.60;99.90
64685;DHT22;51109;47.414;18.954;2022-08-07T02:04:07;20.50;99.90
64685;DHT22;51109;47.414;18.954;2022-08-07T02:06:34;20.50;99.90
64685;DHT22;51109;47.414;18.954;2022-08-07T02:09:07;20.50;99.90
64685;DHT22;51109;47.414;18.954;2022-08-07T02:11:37;20.40;99.90
64685;DHT22;51109;47.414;18.954;2022-08-07T02:14:04;20.40;99.90
64685;DHT22;51109;47.414;18.954;2022-08-07T02:16:32;20.40;99.90
64685;DHT22;51109;47.414;18.954;2022-08-07T02:19:05;20.30;99.90
64685;DHT22;51109;47.414;18.954;2022-08-07T02:21:33;20.40;99.90
64685;DHT22;51109;47.414;18.954;2022-08-07T02:24:01;20.40;99.90
64685;DHT22;51109;47.414;18.954;2022-08-07T02:26:27;20.40;99.90
64685;DHT22;51109;47.414;18.954;2022-08-07T02:28:55;20.40;99.90
64685;DHT22;51109;47.414;18.954;2022-08-07T02:31:22;20.30;99.90
64685;DHT22;51109;47.414;18.954;2022-08-07T02:33:49;20.20;99.90
64685;DHT22;51109;47.414;18.954;2022-08-07T02:36:18;20.20;99.90
64685;DHT22;51109;47.414;18.954;2022-08-07T02:38:45;20.30;99.90
64685;DHT22;51109;47.414;18.954;2022-08-07T02:41:12;20.30;99.90
64685;DHT22;51109;47.414;18.954;2022-08-07T02:43:40;20.40;99.90
64685;DHT22;51109;47.414;18.954;2022-08-07T02:46:08;20.40;99.90
64685;DHT22;51109;47.414;18.954;2022-08-07T02:48:37;20.40;99.90
64685;DHT22;51109;47.414;18.954;2022-08-07T02:51:10;20.30;99.90
64685;DHT22;51109;47.414;18.954;2022-08-07T02:53:39;20.30;99.90
64685;DHT22;51109;47.414;18.954;2022-08-07T02:56:11;20.30;99.90
64685;DHT22;51109;47.414;18.954;2022-08-07T02:58:41;20.40;99.90
64685;DHT22;51109;47.414;18.954;2022-08-07T03:01:09;20.30;99.90
64685;DHT22;51109;47.414;18.954;2022-08-07T03:03:37;20.30;99.90
64685;DHT22;51109;47.414;18.954;2022-08-07T03:06:03;20.20;99.90
64685;DHT22;51109;47.414;18.954;2022-08-07T03:08:30;20.30;99.90
64685;DHT22;51109;47.414;18.954;2022-08-07T03:10:56;20.20;99.90
64685;DHT22;51109;47.414;18.954;2022-08-07T03:13:22;20.20;99.90
64685;DHT22;51109;47.414;18.954;2022-08-07T03:15:49;20.20;99.90
64685;DHT22;51109;47.414;18.954;2022-08-07T03:18:17;20.20;99.90
64685;DHT22;51109;47.414;18.954;2022-08-07T03:20:43;20.30;99.90
64685;DHT22;51109;47.414;18.954;2022-08-07T03:23:11;20.30;99.90
64685;DHT22;51109;47.414;18.954;2022-08-07T03:25:39;20.30;99.90
64685;DHT22;51109;47.414;18.954;2022-08-07T03:28:11;20.30;99.90
64685;DHT22;51109;47.414;18.954;2022-08-07T03:30:39;20.40;99.90
64685;DHT22;51109;47.414;18.954;2022-08-07T03:33:08;20.40;99.90
64685;DHT22;51109;47.414;18.954;2022-08-07T03:35:35;20.50;99.90
64685;DHT22;51109;47.414;18.954;2022-08-07T03:38:05;20.30;99.90
64685;DHT22;51109;47.414;18.954;2022-08-07T03:40:32;20.30;99.90
64685;DHT22;51109;47.414;18.954;2022-08-07T03:42:59;20.30;99.90
64685;DHT22;51109;47.414;18.954;2022-08-07T03:45:26;20.30;99.90
64685;DHT22;51109;47.414;18.954;2022-08-07T03:47:53;20.10;99.90
64685;DHT22;51109;47.414;18.954;2022-08-07T03:50:19;20.10;99.90
64685;DHT22;51109;47.414;18.954;2022-08-07T03:52:47;20.20;99.90
64685;DHT22;51109;47.414;18.954;2022-08-07T03:55:13;20.20;99.90
64685;DHT22;51109;47.414;18.954;2022-08-07T03:57:40;20.20;99.90
64685;DHT22;51109;47.414;18.954;2022-08-07T04:00:07;20.20;99.90
64685;DHT22;51109;47.414;18.954;2022-08-07T04:02:35;20.30;99.90
64685;DHT22;51109;47.414;18.954;2022-08-07T04:05:00;20.30;99.90
64685;DHT22;51109;47.414;18.954;2022-08-07T04:07:26;20.30;99.90
64685;DHT22;51109;47.414;18.954;2022-08-07T04:09:53;20.40;99.90
64685;DHT22;51109;47.414;18.954;2022-08-07T04:12:19;20.40;99.90
64685;DHT22;51109;47.414;18.954;2022-08-07T04:14:45;20.30;99.90
64685;DHT22;51109;47.414;18.954;2022-08-07T04:17:12;20.30;99.90
64685;DHT22;51109;47.414;18.954;2022-08-07T04:19:41;20.30;99.90
64685;DHT22;51109;47.414;18.954;2022-08-07T04:22:07;20.30;99.90
64685;DHT22;51109;47.414;18.954;2022-08-07T04:24:33;20.40;99.90
64685;DHT22;51109;47.414;18.954;2022-08-07T04:27:00;20.40;99.90
64685;DHT22;51109;47.414;18.954;2022-08-07T04:29:27;20.40;99.90
64685;DHT22;51109;47.414;18.954;2022-08-07T04:31:55;20.40;99.90
64685;DHT22;51109;47.414;18.954;2022-08-07T04:34:22;20.30;99.90
64685;DHT22;51109;47.414;18.954;2022-08-07T04:36:48;20.20;99.90
64685;DHT22;51109;47.414;18.954;2022-08-07T04:39:14;20.10;99.90
64685;DHT22;51109;47.414;18.954;2022-08-07T04:41:41;20.10;99.90
64685;DHT22;51109;47.414;18.954;2022-08-07T04:44:07;20.10;99.90
64685;DHT22;51109;47.414;18.954;2022-08-07T04:49:19;20.30;99.90
64685;DHT22;51109;47.414;18.954;2022-08-07T04:52:17;20.30;99.90
64685;DHT22;51109;47.414;18.954;2022-08-07T04:55:11;20.30;99.90
64685;DHT22;51109;47.414;18.954;2022-08-07T05:00:18;20.20;99.90
64685;DHT22;51109;47.414;18.954;2022-08-07T05:03:04;20.20;99.90
64685;DHT22;51109;47.414;18.954;2022-08-07T05:05:49;20.20;99.90
64685;DHT22;51109;47.414;18.954;2022-08-07T05:08:34;20.20;99.90
64685;DHT22;51109;47.414;18.954;2022-08-07T05:11:31;20.40;99.90
64685;DHT22;51109;47.414;18.954;2022-08-07T05:14:00;20.40;99.90
64685;DHT22;51109;47.414;18.954;2022-08-07T05:16:29;20.50;99.90
64685;DHT22;51109;47.414;18.954;2022-08-07T05:19:01;20.50;99.90
64685;DHT22;51109;47.414;18.954;2022-08-07T05:21:29;20.50;99.90
64685;DHT22;51109;47.414;18.954;2022-08-07T05:24:00;20.50;99.90
64685;DHT22;51109;47.414;18.954;2022-08-07T05:26:28;20.40;99.90
64685;DHT22;51109;47.414;18.954;2022-08-07T05:28:59;20.40;99.90
64685;DHT22;51109;47.414;18.954;2022-08-07T05:31:29;20.50;99.90
64685;DHT22;51109;47.414;18.954;2022-08-07T05:33:58;20.60;99.90
64685;DHT22;51109;47.414;18.954;2022-08-07T05:36:27;20.50;99.90
64685;DHT22;51109;47.414;18.954;2022-08-07T05:38:54;20.60;99.90
64685;DHT22;51109;47.414;18.954;2022-08-07T05:41:21;20.60;99.90
64685;DHT22;51109;47.414;18.954;2022-08-07T05:43:53;20.70;99.90
64685;DHT22;51109;47.414;18.954;2022-08-07T05:46:19;20.90;99.90
64685;DHT22;51109;47.414;18.954;2022-08-07T05:48:47;20.90;99.90
64685;DHT22;51109;47.414;18.954;2022-08-07T05:51:13;21.10;99.90
64685;DHT22;51109;47.414;18.954;2022-08-07T05:53:39;21.10;99.90
64685;DHT22;51109;47.414;18.954;2022-08-07T05:56:07;21.30;99.90
64685;DHT22;51109;47.414;18.954;2022-08-07T05:58:37;21.40;99.90
64685;DHT22;51109;47.414;18.954;2022-08-07T06:01:10;21.50;99.90
64685;DHT22;51109;47.414;18.954;2022-08-07T06:03:38;21.40;99.90
64685;DHT22;51109;47.414;18.954;2022-08-07T06:06:05;21.50;99.90
64685;DHT22;51109;47.414;18.954;2022-08-07T06:08:32;21.60;99.90
64685;DHT22;51109;47.414;18.954;2022-08-07T06:10:58;21.60;99.90
64685;DHT22;51109;47.414;18.954;2022-08-07T06:13:25;21.80;99.90
64685;DHT22;51109;47.414;18.954;2022-08-07T06:15:53;21.90;99.90
64685;DHT22;51109;47.414;18.954;2022-08-07T06:18:20;21.90;99.90
64685;DHT22;51109;47.414;18.954;2022-08-07T06:20:47;22.00;99.90
64685;DHT22;51109;47.414;18.954;2022-08-07T06:23:13;22.10;99.90
64685;DHT22;51109;47.414;18.954;2022-08-07T06:25:40;22.10;99.90
64685;DHT22;51109;47.414;18.954;2022-08-07T06:28:08;22.00;99.90
64685;DHT22;51109;47.414;18.954;2022-08-07T06:30:36;22.10;99.90
64685;DHT22;51109;47.414;18.954;2022-08-07T06:33:03;22.10;99.90
64685;DHT22;51109;47.414;18.954;2022-08-07T06:35:30;22.10;99.90
64685;DHT22;51109;47.414;18.954;2022-08-07T06:37:57;22.30;99.90
64685;DHT22;51109;47.414;18.954;2022-08-07T06:40:23;22.30;99.90
64685;DHT22;51109;47.414;18.954;2022-08-07T06:42:50;22.40;99.90
64685;DHT22;51109;47.414;18.954;2022-08-07T06:45:19;22.40;99.90
64685;DHT22;51109;47.414;18.954;2022-08-07T06:47:45;22.60;99.90
64685;DHT22;51109;47.414;18.954;2022-08-07T06:50:12;22.60;99.90
64685;DHT22;51109;47.414;18.954;2022-08-07T06:52:41;22.70;99.90
64685;DHT22;51109;47.414;18.954;2022-08-07T06:55:18;22.70;99.90
64685;DHT22;51109;47.414;18.954;2022-08-07T06:57:45;22.80;99.90
64685;DHT22;51109;47.414;18.954;2022-08-07T07:00:12;22.90;99.90
64685;DHT22;51109;47.414;18.954;2022-08-07T07:02:40;22.90;99.90
64685;DHT22;51109;47.414;18.954;2022-08-07T07:05:07;22.80;99.90
64685;DHT22;51109;47.414;18.954;2022-08-07T07:07:33;22.80;99.90
64685;DHT22;51109;47.414;18.954;2022-08-07T07:09:59;22.60;99.90
64685;DHT22;51109;47.414;18.954;2022-08-07T07:12:51;22.60;99.90
64685;DHT22;51109;47.414;18.954;2022-08-07T07:15:28;22.60;99.90
64685;DHT22;51109;47.414;18.954;2022-08-07T07:18:14;22.50;99.90
64685;DHT22;51109;47.414;18.954;2022-08-07T07:21:02;22.40;99.90
64685;DHT22;51109;47.414;18.954;2022-08-07T07:23:29;22.40;99.90
64685;DHT22;51109;47.414;18.954;2022-08-07T07:26:01;22.30;99.90
64685;DHT22;51109;47.414;18.954;2022-08-07T07:29:02;22.30;99.90
64685;DHT22;51109;47.414;18.954;2022-08-07T07:31:30;22.40;99.90
64685;DHT22;51109;47.414;18.954;2022-08-07T07:34:04;22.40;99.90
64685;DHT22;51109;47.414;18.954;2022-08-07T07:36:31;22.50;99.90
64685;DHT22;51109;47.414;18.954;2022-08-07T07:38:59;22.60;99.90
64685;DHT22;51109;47.414;18.954;2022-08-07T07:41:26;22.60;99.90
64685;DHT22;51109;47.414;18.954;2022-08-07T07:43:54;22.60;99.90
64685;DHT22;51109;47.414;18.954;2022-08-07T07:46:21;22.60;99.90
64685;DHT22;51109;47.414;18.954;2022-08-07T07:48:49;22.60;99.90
64685;DHT22;51109;47.414;18.954;2022-08-07T07:51:16;22.70;99.90
64685;DHT22;51109;47.414;18.954;2022-08-07T07:53:44;22.80;99.90
64685;DHT22;51109;47.414;18.954;2022-08-07T07:56:12;22.90;99.90
64685;DHT22;51109;47.414;18.954;2022-08-07T07:58:38;22.90;99.90
64685;DHT22;51109;47.414;18.954;2022-08-07T08:01:07;23.00;99.90
64685;DHT22;51109;47.414;18.954;2022-08-07T08:03:36;23.00;99.90
64685;DHT22;51109;47.414;18.954;2022-08-07T08:06:03;23.00;99.90
64685;DHT22;51109;47.414;18.954;2022-08-07T08:08:35;23.10;99.90
64685;DHT22;51109;47.414;18.954;2022-08-07T08:11:05;23.20;99.90
64685;DHT22;51109;47.414;18.954;2022-08-07T08:13:34;23.30;99.90
64685;DHT22;51109;47.414;18.954;2022-08-07T08:16:01;23.30;99.90
64685;DHT22;51109;47.414;18.954;2022-08-07T08:18:28;23.30;99.90
64685;DHT22;51109;47.414;18.954;2022-08-07T08:20:57;23.40;99.90
64685;DHT22;51109;47.414;18.954;2022-08-07T08:23:24;23.40;99.90
64685;DHT22;51109;47.414;18.954;2022-08-07T08:26:11;23.40;99.90
64685;DHT22;51109;47.414;18.954;2022-08-07T08:28:57;23.50;99.90
64685;DHT22;51109;47.414;18.954;2022-08-07T08:31:29;23.60;99.90
64685;DHT22;51109;47.414;18.954;2022-08-07T08:33:59;23.70;99.90
64685;DHT22;51109;47.414;18.954;2022-08-07T08:36:29;23.80;99.90
64685;DHT22;51109;47.414;18.954;2022-08-07T08:38:58;23.90;99.90
64685;DHT22;51109;47.414;18.954;2022-08-07T08:42:03;24.00;99.90
64685;DHT22;51109;47.414;18.954;2022-08-07T08:48:05;24.10;99.90
64685;DHT22;51109;47.414;18.954;2022-08-07T08:50:54;24.00;99.90
64685;DHT22;51109;47.414;18.954;2022-08-07T08:53:25;24.10;99.90
64685;DHT22;51109;47.414;18.954;2022-08-07T08:56:35;24.10;99.90
64685;DHT22;51109;47.414;18.954;2022-08-07T08:59:03;24.20;99.90
64685;DHT22;51109;47.414;18.954;2022-08-07T09:05:18;24.20;99.90
64685;DHT22;51109;47.414;18.954;2022-08-07T09:10:43;24.60;99.90
64685;DHT22;51109;47.414;18.954;2022-08-07T09:16:07;24.90;99.90
64685;DHT22;51109;47.414;18.954;2022-08-07T09:18:51;25.00;99.90
64685;DHT22;51109;47.414;18.954;2022-08-07T09:27:18;25.40;99.90
64685;DHT22;51109;47.414;18.954;2022-08-07T09:40:22;26.10;99.90
64685;DHT22;51109;47.414;18.954;2022-08-07T09:43:18;26.40;99.90
64685;DHT22;51109;47.414;18.954;2022-08-07T09:48:57;26.60;99.90
64685;DHT22;51109;47.414;18.954;2022-08-07T09:54:25;26.70;99.90
64685;DHT22;51109;47.414;18.954;2022-08-07T10:30:18;27.30;99.90
64685;DHT22;51109;47.414;18.954;2022-08-07T10:38:36;27.60;99.90
64685;DHT22;51109;47.414;18.954;2022-08-07T10:41:16;27.80;99.90
64685;DHT22;51109;47.414;18.954;2022-08-07T10:46:20;28.00;99.90
64685;DHT22;51109;47.414;18.954;2022-08-07T10:49:21;28.10;99.90
64685;DHT22;51109;47.414;18.954;2022-08-07T10:51:52;28.10;99.90
64685;DHT22;51109;47.414;18.954;2022-08-07T10:54:36;28.00;99.90
64685;DHT22;51109;47.414;18.954;2022-08-07T10:57:18;28.10;99.90
64685;DHT22;51109;47.414;18.954;2022-08-07T11:00:06;28.10;99.90
64685;DHT22;51109;47.414;18.954;2022-08-07T11:05:41;28.20;99.90
64685;DHT22;51109;47.414;18.954;2022-08-07T11:08:32;28.20;99.90
64685;DHT22;51109;47.414;18.954;2022-08-07T11:11:23;28.10;99.90
64685;DHT22;51109;47.414;18.954;2022-08-07T11:14:27;28.20;99.90
64685;DHT22;51109;47.414;18.954;2022-08-07T11:17:02;28.40;99.90
64685;DHT22;51109;47.414;18.954;2022-08-07T11:22:39;29.00;99.90
64685;DHT22;51109;47.414;18.954;2022-08-07T11:25:23;29.00;99.90
64685;DHT22;51109;47.414;18.954;2022-08-07T11:28:10;29.20;99.90
64685;DHT22;51109;47.414;18.954;2022-08-07T11:36:12;29.20;99.90
64685;DHT22;51109;47.414;18.954;2022-08-07T11:41:54;29.40;99.90
64685;DHT22;51109;47.414;18.954;2022-08-07T11:44:38;29.60;99.90
64685;DHT22;51109;47.414;18.954;2022-08-07T11:47:21;29.20;99.90
64685;DHT22;51109;47.414;18.954;2022-08-07T11:50:02;28.90;99.90
64685;DHT22;51109;47.414;18.954;2022-08-07T11:52:38;28.80;99.90
64685;DHT22;51109;47.414;18.954;2022-08-07T12:01:41;29.40;99.90
64685;DHT22;51109;47.414;18.954;2022-08-07T12:07:22;29.40;99.90
64685;DHT22;51109;47.414;18.954;2022-08-07T12:10:01;29.40;99.90
64685;DHT22;51109;47.414;18.954;2022-08-07T12:12:36;29.50;99.90
64685;DHT22;51109;47.414;18.954;2022-08-07T12:18:07;29.80;99.90
64685;DHT22;51109;47.414;18.954;2022-08-07T12:20:46;29.80;99.90
64685;DHT22;51109;47.414;18.954;2022-08-07T12:23:30;29.90;99.90
64685;DHT22;51109;47.414;18.954;2022-08-07T12:26:25;30.00;99.90
64685;DHT22;51109;47.414;18.954;2022-08-07T12:29:10;30.00;99.90
64685;DHT22;51109;47.414;18.954;2022-08-07T12:31:51;30.20;99.90
64685;DHT22;51109;47.414;18.954;2022-08-07T12:34:23;30.30;99.90
64685;DHT22;51109;47.414;18.954;2022-08-07T12:36:51;30.40;99.90
64685;DHT22;51109;47.414;18.954;2022-08-07T12:39:19;30.60;99.90
64685;DHT22;51109;47.414;18.954;2022-08-07T12:41:46;30.80;99.90
64685;DHT22;51109;47.414;18.954;2022-08-07T12:44:13;30.90;99.90
64685;DHT22;51109;47.414;18.954;2022-08-07T12:55:06;30.80;99.90
64685;DHT22;51109;47.414;18.954;2022-08-07T12:57:36;30.90;99.90
64685;DHT22;51109;47.414;18.954;2022-08-07T13:00:04;30.80;99.90
64685;DHT22;51109;47.414;18.954;2022-08-07T13:03:00;30.80;99.90
64685;DHT22;51109;47.414;18.954;2022-08-07T13:08:28;30.90;99.90
64685;DHT22;51109;47.414;18.954;2022-08-07T13:16:53;31.10;99.90
64685;DHT22;51109;47.414;18.954;2022-08-07T13:22:01;31.20;99.90
64685;DHT22;51109;47.414;18.954;2022-08-07T13:27:34;31.20;99.90
64685;DHT22;51109;47.414;18.954;2022-08-07T13:30:06;31.30;99.90
64685;DHT22;51109;47.414;18.954;2022-08-07T13:32:52;31.30;99.90
64685;DHT22;51109;47.414;18.954;2022-08-07T13:35:35;31.00;99.10
64685;DHT22;51109;47.414;18.954;2022-08-07T13:40:42;30.90;99.90
64685;DHT22;51109;47.414;18.954;2022-08-07T13:43:14;31.00;99.90
64685;DHT22;51109;47.414;18.954;2022-08-07T13:45:43;31.00;99.60
64685;DHT22;51109;47.414;18.954;2022-08-07T13:48:11;31.00;99.60
64685;DHT22;51109;47.414;18.954;2022-08-07T13:50:41;30.70;99.80
64685;DHT22;51109;47.414;18.954;2022-08-07T13:53:08;30.70;99.70
64685;DHT22;51109;47.414;18.954;2022-08-07T13:55:35;30.60;99.40
64685;DHT22;51109;47.414;18.954;2022-08-07T13:58:12;30.60;99.90
64685;DHT22;51109;47.414;18.954;2022-08-07T14:00:59;30.50;99.90
64685;DHT22;51109;47.414;18.954;2022-08-07T14:03:26;30.60;99.90
64685;DHT22;51109;47.414;18.954;2022-08-07T14:05:56;30.60;99.90
64685;DHT22;51109;47.414;18.954;2022-08-07T14:08:24;30.80;99.60
64685;DHT22;51109;47.414;18.954;2022-08-07T14:10:51;31.10;99.30
64685;DHT22;51109;47.414;18.954;2022-08-07T14:13:26;30.90;99.10
64685;DHT22;51109;47.414;18.954;2022-08-07T14:15:59;31.20;99.60
64685;DHT22;51109;47.414;18.954;2022-08-07T14:18:46;31.30;98.70
64685;DHT22;51109;47.414;18.954;2022-08-07T14:21:27;31.50;98.70
64685;DHT22;51109;47.414;18.954;2022-08-07T14:24:03;31.60;98.00
64685;DHT22;51109;47.414;18.954;2022-08-07T14:26:43;31.70;97.90
64685;DHT22;51109;47.414;18.954;2022-08-07T14:29:17;31.80;97.10
64685;DHT22;51109;47.414;18.954;2022-08-07T14:31:46;31.80;98.00
64685;DHT22;51109;47.414;18.954;2022-08-07T14:34:13;31.90;97.60
64685;DHT22;51109;47.414;18.954;2022-08-07T14:36:41;31.80;97.40
64685;DHT22;51109;47.414;18.954;2022-08-07T14:39:07;31.50;96.50
64685;DHT22;51109;47.414;18.954;2022-08-07T14:41:34;31.10;97.00
64685;DHT22;51109;47.414;18.954;2022-08-07T14:44:07;31.20;98.00
64685;DHT22;51109;47.414;18.954;2022-08-07T14:46:34;31.30;97.60
64685;DHT22;51109;47.414;18.954;2022-08-07T14:49:02;31.40;97.00
64685;DHT22;51109;47.414;18.954;2022-08-07T14:51:29;31.70;96.80
64685;DHT22;51109;47.414;18.954;2022-08-07T14:53:58;31.70;96.90
64685;DHT22;51109;47.414;18.954;2022-08-07T14:56:27;32.00;97.30
64685;DHT22;51109;47.414;18.954;2022-08-07T14:58:55;32.10;97.40
64685;DHT22;51109;47.414;18.954;2022-08-07T15:01:27;32.30;96.20
64685;DHT22;51109;47.414;18.954;2022-08-07T15:04:02;32.50;96.70
64685;DHT22;51109;47.414;18.954;2022-08-07T15:06:32;32.40;95.60
64685;DHT22;51109;47.414;18.954;2022-08-07T15:09:11;32.60;96.20
64685;DHT22;51109;47.414;18.954;2022-08-07T15:11:40;32.60;96.00
64685;DHT22;51109;47.414;18.954;2022-08-07T15:14:14;32.60;95.90
64685;DHT22;51109;47.414;18.954;2022-08-07T15:16:47;32.50;96.00
64685;DHT22;51109;47.414;18.954;2022-08-07T15:19:17;32.40;95.90
64685;DHT22;51109;47.414;18.954;2022-08-07T15:21:56;32.10;94.90
64685;DHT22;51109;47.414;18.954;2022-08-07T15:24:48;31.90;95.60
64685;DHT22;51109;47.414;18.954;2022-08-07T15:27:20;31.60;96.50
64685;DHT22;51109;47.414;18.954;2022-08-07T15:29:53;31.30;95.30
64685;DHT22;51109;47.414;18.954;2022-08-07T15:32:22;31.30;96.00
64685;DHT22;51109;47.414;18.954;2022-08-07T15:34:52;31.30;95.60
64685;DHT22;51109;47.414;18.954;2022-08-07T15:37:31;31.20;95.50
64685;DHT22;51109;47.414;18.954;2022-08-07T15:40:01;31.30;97.10
64685;DHT22;51109;47.414;18.954;2022-08-07T15:45:29;31.50;95.10
64685;DHT22;51109;47.414;18.954;2022-08-07T15:48:21;31.40;95.50
64685;DHT22;51109;47.414;18.954;2022-08-07T15:50:50;31.40;94.70
64685;DHT22;51109;47.414;18.954;2022-08-07T15:53:34;31.50;95.20
64685;DHT22;51109;47.414;18.954;2022-08-07T15:56:02;31.60;95.90
64685;DHT22;51109;47.414;18.954;2022-08-07T15:58:49;31.70;95.40
64685;DHT22;51109;47.414;18.954;2022-08-07T16:01:52;31.90;94.70
64685;DHT22;51109;47.414;18.954;2022-08-07T16:04:12;31.90;94.70
64685;DHT22;51109;47.414;18.954;2022-08-07T16:06:49;31.90;94.70
64685;DHT22;51109;47.414;18.954;2022-08-07T16:17:31;31.10;94.10
64685;DHT22;51109;47.414;18.954;2022-08-07T16:20:23;31.00;94.80
64685;DHT22;51109;47.414;18.954;2022-08-07T16:32:02;31.40;94.20
64685;DHT22;51109;47.414;18.954;2022-08-07T16:34:50;31.30;93.90
64685;DHT22;51109;47.414;18.954;2022-08-07T16:51:56;31.00;94.30
64685;DHT22;51109;47.414;18.954;2022-08-07T16:57:35;30.50;94.80
64685;DHT22;51109;47.414;18.954;2022-08-07T17:00:13;30.30;95.10
64685;DHT22;51109;47.414;18.954;2022-08-07T17:05:59;30.00;95.90
64685;DHT22;51109;47.414;18.954;2022-08-07T17:08:35;29.80;95.70
64685;DHT22;51109;47.414;18.954;2022-08-07T17:11:08;29.70;96.10
64685;DHT22;51109;47.414;18.954;2022-08-07T17:13:58;29.60;96.00
64685;DHT22;51109;47.414;18.954;2022-08-07T17:16:32;29.60;96.30
64685;DHT22;51109;47.414;18.954;2022-08-07T17:19:33;29.50;96.50
64685;DHT22;51109;47.414;18.954;2022-08-07T17:22:07;29.60;97.00
64685;DHT22;51109;47.414;18.954;2022-08-07T17:24:52;29.50;97.00
64685;DHT22;51109;47.414;18.954;2022-08-07T17:27:42;29.50;97.00
64685;DHT22;51109;47.414;18.954;2022-08-07T17:30:11;29.50;97.00
64685;DHT22;51109;47.414;18.954;2022-08-07T17:35:54;29.60;97.30
64685;DHT22;51109;47.414;18.954;2022-08-07T17:38:59;29.50;97.00
64685;DHT22;51109;47.414;18.954;2022-08-07T17:44:09;29.40;97.30
64685;DHT22;51109;47.414;18.954;2022-08-07T17:46:46;29.40;97.30
64685;DHT22;51109;47.414;18.954;2022-08-07T17:49:22;29.30;97.20
64685;DHT22;51109;47.414;18.954;2022-08-07T17:51:56;29.30;97.40
64685;DHT22;51109;47.414;18.954;2022-08-07T17:54:48;29.20;97.40
64685;DHT22;51109;47.414;18.954;2022-08-07T17:57:27;29.20;97.30
64685;DHT22;51109;47.414;18.954;2022-08-07T18:00:03;29.10;97.30
64685;DHT22;51109;47.414;18.954;2022-08-07T18:02:59;29.10;97.90
64685;DHT22;51109;47.414;18.954;2022-08-07T18:11:22;29.00;97.70
64685;DHT22;51109;47.414;18.954;2022-08-07T18:16:43;28.80;97.80
64685;DHT22;51109;47.414;18.954;2022-08-07T18:21:57;28.90;98.10
64685;DHT22;51109;47.414;18.954;2022-08-07T18:24:39;28.70;97.70
64685;DHT22;51109;47.414;18.954;2022-08-07T18:35:29;28.50;97.70
64685;DHT22;51109;47.414;18.954;2022-08-07T18:53:08;28.00;97.40
64685;DHT22;51109;47.414;18.954;2022-08-07T19:01:41;28.00;97.50
64685;DHT22;51109;47.414;18.954;2022-08-07T19:04:20;27.80;97.70
64685;DHT22;51109;47.414;18.954;2022-08-07T19:07:20;27.80;96.90
64685;DHT22;51109;47.414;18.954;2022-08-07T19:10:10;27.70;96.50
64685;DHT22;51109;47.414;18.954;2022-08-07T19:13:05;27.40;95.40
64685;DHT22;51109;47.414;18.954;2022-08-07T19:19:16;27.20;95.20
64685;DHT22;51109;47.414;18.954;2022-08-07T19:21:58;27.20;95.20
64685;DHT22;51109;47.414;18.954;2022-08-07T19:24:39;27.20;95.30
64685;DHT22;51109;47.414;18.954;2022-08-07T19:27:10;27.10;95.00
64685;DHT22;51109;47.414;18.954;2022-08-07T19:29:41;26.90;95.10
64685;DHT22;51109;47.414;18.954;2022-08-07T19:32:10;26.90;95.00
64685;DHT22;51109;47.414;18.954;2022-08-07T19:34:49;26.90;94.70